Latest Weather Observations for Camden

IDN60901

Issued at 6:02 pm EST Saturday 5 September 2026 (issued every 10 minutes, with the page automatically refreshed every 10 minutes)

About weather observations | Map of Sydney area stations | Latest observations for Sydney area | Other Formats
Station Details ID: 068192 Name: CAMDEN AIRPORT AWS Lat: -34.04 Lon: 150.69 Height: 73.9 m
Data from the previous 72 hours. | See also: Recent months at Camden
Date/Time
EST
Temp
°C
App
Temp
°C
Dew
Point
°C
Rel
Hum
%
Delta-T
°C
Wind Press
QNH
hPa
Press
MSL
hPa
Rain since
9am
mm
Dir  Spd
km/h
Gust
km/h
Spd
kts
Gust
kts
05/06:00pm 20.0 17.0 12.0 60 4.5 NNE 19 26 10 14 1007.9 1007.8 0.0
05/05:30pm 20.0 18.1 11.8 59 4.6 N 13 15 7 8 1008.4 1008.3 0.0
05/05:00pm 21.1 20.2 11.2 53 5.5 NW 7 15 4 8 1008.8 1008.7 0.0
05/04:30pm 22.0 19.0 12.0 53 5.6 WNW 19 28 10 15 1009.7 1009.7 0.0
05/04:13pm 21.9 17.3 12.2 54 5.5 W 28 41 15 22 1009.8 1009.8 0.0
05/04:00pm 21.7 14.4 11.7 53 5.6 W 41 63 22 34 1009.5 1009.5 0.0
05/03:45pm 25.0 15.7 9.3 37 8.6 WSW 48 69 26 37 1009.1 1009.1 0.0
05/03:35pm 26.4 17.7 8.4 32 9.8 WSW 44 59 24 32 1008.1 1008.0 0.0
05/03:30pm 27.3 19.5 8.2 30 10.4 W 39 57 21 31 1007.6 1007.5 0.0
05/03:28pm 27.6 20.2 8.5 30 10.4 W 37 52 20 28 1007.4 1007.3 0.0
05/03:00pm 31.0 23.5 8.1 24 12.7 W 37 59 20 32 1006.9 1006.8 0.0
05/02:30pm 29.9 22.2 7.2 24 12.3 WNW 37 69 20 37 1006.5 1006.4 0.0
05/02:00pm 31.0 23.5 6.1 21 13.3 NW 35 63 19 34 1006.0 1005.9 0.0
05/01:54pm 32.0 26.0 7.0 21 13.6 NW 28 50 15 27 1006.1 1006.0 0.0
05/01:47pm 31.5 25.4 6.5 21 13.5 NW 28 43 15 23 1005.9 1005.8 0.0
05/01:38pm 31.5 25.3 7.9 23 13.0 NW 30 44 16 24 1005.8 1005.7 0.0
05/01:30pm 31.5 24.8 7.2 22 13.3 NW 32 56 17 30 1005.9 1005.8 0.0
05/01:28pm 31.2 24.7 6.3 21 13.4 NW 30 56 16 30 1005.8 1005.7 0.0
05/01:00pm 29.9 25.5 8.9 27 11.7 NNW 22 32 12 17 1006.9 1006.8 0.0
05/12:30pm 29.8 24.6 8.8 27 11.7 N 26 35 14 19 1007.8 1007.7 0.0
05/12:00pm 28.3 22.5 9.6 31 10.5 N 30 39 16 21 1008.8 1008.7 0.0
05/11:30am 26.7 22.4 9.5 34 9.5 NNE 22 35 12 19 1009.8 1009.8 0.0
05/11:00am 26.3 22.7 10.0 36 9.1 NNE 19 28 10 15 1010.8 1010.8 0.0
05/10:30am 25.6 24.1 10.6 39 8.4 N 9 13 5 7 1011.8 1011.8 0.0
05/10:00am 21.2 21.0 11.8 55 5.3 NW 4 9 2 5 1012.9 1012.9 0.0
05/09:30am 18.5 17.6 10.6 60 4.3 E 6 9 3 5 1014.1 1014.1 0.0
05/09:00am 15.6 14.9 9.9 69 3.0 WSW 4 7 2 4 1014.6 1014.6 0.0
05/08:30am 13.7 12.3 9.6 76 2.1 SE 7 7 4 4 1015.1 1015.1 0.0
05/08:00am 12.6 12.7 10.0 84 1.3 CALM 0 0 0 0 1015.7 1015.6 0.0
05/07:30am 10.2 9.1 10.1 99 0.1 N 6 7 3 4 1015.6 1015.5 0.0
05/07:00am 8.6 8.3 8.5 99 0.0 CALM 0 0 0 0 1015.8 1015.7 0.0
05/06:57am 8.5 8.1 8.4 99 0.0 CALM 0 0 0 0 1015.8 1015.7 0.0
05/06:37am 7.5 6.9 7.4 99 0.0 CALM 0 0 0 0 1015.8 1015.7 0.0
05/06:30am 7.5 6.9 7.4 99 0.0 CALM 0 0 0 0 1016.0 1015.9 0.0
05/06:00am 7.4 6.8 7.3 99 0.0 CALM 0 0 0 0 1016.0 1015.9 0.0
05/05:30am 7.7 7.1 7.4 98 0.1 CALM 0 0 0 0 1016.0 1015.9 0.0
05/05:00am 7.7 7.1 7.3 97 0.2 CALM 0 0 0 0 1016.0 1015.9 0.0
05/04:30am 8.6 7.1 8.5 99 0.0 NNE 6 7 3 4 1015.7 1015.6 0.0
05/04:00am 8.3 7.4 7.9 97 0.2 N 2 7 1 4 1016.1 1016.0 0.0
05/03:30am 8.5 7.9 7.6 94 0.4 CALM 0 0 0 0 1016.1 1016.0 0.0
05/03:00am 9.0 8.1 7.6 91 0.7 S 2 6 1 3 1016.1 1016.0 0.0
05/02:30am 9.2 8.3 7.8 91 0.7 SW 2 6 1 3 1016.8 1016.7 0.0
05/02:00am 9.0 7.7 7.5 90 0.7 SE 4 9 2 5 1017.0 1016.9 0.0
05/01:30am 10.4 8.9 8.3 87 1.0 SE 6 7 3 4 1017.5 1017.4 0.0
05/01:00am 10.1 8.5 8.0 87 1.0 WSW 6 7 3 4 1017.8 1017.7 0.0
05/12:30am 11.0 9.3 8.4 84 1.3 N 7 9 4 5 1018.1 1018.0 0.0
05/12:00am 11.2 9.5 8.4 83 1.4 NNW 7 9 4 5 1018.1 1018.0 0.0
 
Date/Time
EST
Temp
°C
App
Temp
°C
Dew
Point
°C
Rel
Hum
%
Delta-T
°C
Wind Press
QNH
hPa
Press
MSL
hPa
Rain since
9am
mm
Dir  Spd
km/h
Gust
km/h
Spd
kts
Gust
kts
04/11:30pm 11.8 10.2 8.8 82 1.5 NW 7 9 4 5 1018.2 1018.1 0.0
04/11:00pm 11.8 10.6 9.5 86 1.2 NNW 6 9 3 5 1018.6 1018.5 0.0
04/10:30pm 12.6 11.5 8.5 76 2.0 SSW 4 6 2 3 1018.7 1018.6 0.0
04/10:00pm 15.0 14.4 7.5 61 3.7 CALM 0 0 0 0 1019.2 1019.1 0.0
04/09:30pm 14.3 14.3 9.7 74 2.4 CALM 0 0 0 0 1019.1 1019.0 0.0
04/09:00pm 15.4 14.3 8.4 63 3.5 SSE 4 7 2 4 1019.1 1019.0 0.0
04/08:30pm 15.3 13.8 8.5 64 3.5 SSE 6 11 3 6 1018.8 1018.7 0.0
04/08:00pm 16.2 14.5 7.7 57 4.3 SSE 6 7 3 4 1018.5 1018.4 0.0
04/07:30pm 17.1 14.6 8.0 55 4.6 ESE 11 17 6 9 1018.4 1018.3 0.0
04/07:00pm 16.7 15.0 7.4 54 4.7 SSW 6 7 3 4 1017.9 1017.8 0.0
04/06:30pm 16.6 16.1 7.8 56 4.4 CALM 0 7 0 4 1017.3 1017.2 0.0
04/06:00pm 19.4 18.4 5.8 41 6.7 CALM 0 7 0 4 1017.0 1016.9 0.0
04/05:30pm 20.5 18.4 6.8 41 7.0 N 7 11 4 6 1016.6 1016.5 0.0
04/05:00pm 22.1 18.8 6.3 36 8.0 N 13 17 7 9 1016.3 1016.2 0.0
04/04:30pm 23.0 20.1 6.7 35 8.4 NNE 11 17 6 9 1016.2 1016.1 0.0
04/04:00pm 23.3 20.0 6.6 34 8.6 NNE 13 17 7 9 1016.2 1016.1 0.0
04/03:30pm 23.6 20.6 6.0 32 9.0 NNE 11 20 6 11 1016.1 1016.0 0.0
04/03:00pm 23.6 21.5 6.0 32 9.0 ESE 6 11 3 6 1016.3 1016.2 0.0
04/02:30pm 23.7 21.1 6.0 32 9.0 ENE 9 17 5 9 1016.7 1016.6 0.0
04/02:00pm 22.8 20.1 5.7 33 8.6 S 9 13 5 7 1017.1 1017.0 0.0
04/01:30pm 22.5 19.8 5.4 33 8.6 E 9 15 5 8 1017.7 1017.6 0.0
04/01:00pm 22.4 19.3 5.4 33 8.5 W 11 19 6 10 1018.3 1018.2 0.0
04/12:30pm 22.6 19.2 6.0 34 8.4 WNW 13 24 7 13 1018.7 1018.6 0.0
04/12:00pm 21.7 17.3 4.7 33 8.3 WNW 17 24 9 13 1019.3 1019.2 0.0
04/11:30am 20.9 17.4 5.3 36 7.7 SSW 13 24 7 13 1020.0 1019.9 0.0
04/11:00am 20.4 17.2 5.2 37 7.5 SW 11 19 6 10 1020.8 1020.8 0.0
04/10:30am 20.0 17.0 6.0 40 7.0 SW 11 20 6 11 1020.8 1020.8 0.0
04/10:00am 19.3 15.2 6.4 43 6.4 WSW 17 24 9 13 1021.1 1021.1 0.0
04/09:30am 18.8 14.3 6.3 44 6.2 WSW 19 26 10 14 1021.5 1021.5 0.0
04/09:00am 17.9 15.0 6.7 48 5.6 WSW 11 24 6 13 1021.9 1021.9 0.0
04/08:30am 15.1 13.4 7.4 60 3.8 S 6 9 3 5 1022.0 1022.0 0.0
04/08:00am 12.6 11.1 8.3 75 2.1 SSW 6 7 3 4 1022.1 1022.1 0.0
04/07:30am 10.8 10.5 8.6 86 1.1 CALM 0 0 0 0 1022.0 1022.0 0.0
04/07:00am 8.2 7.4 6.5 89 0.8 CALM 0 0 0 0 1021.7 1021.7 0.0
04/06:30am 6.8 5.0 5.3 90 0.7 NNE 4 7 2 4 1021.4 1021.4 0.0
04/06:00am 7.0 5.9 5.3 89 0.8 CALM 0 2 0 1 1021.2 1021.2 0.0
04/05:30am 7.6 6.4 4.7 82 1.3 CALM 0 7 0 4 1020.8 1020.8 0.0
04/05:00am 8.2 6.2 6.2 87 0.9 N 6 9 3 5 1020.5 1020.5 0.0
04/04:30am 7.4 5.1 5.7 89 0.8 NW 7 13 4 7 1020.3 1020.3 0.0
04/04:00am 8.3 7.3 5.6 83 1.2 CALM 0 0 0 0 1019.9 1019.8 0.0
04/03:30am 11.0 8.4 6.0 71 2.3 NE 9 11 5 6 1019.8 1019.7 0.0
04/03:00am 10.0 8.6 5.4 73 2.1 NNE 2 7 1 4 1019.5 1019.4 0.0
04/02:30am 12.2 9.8 5.1 62 3.3 S 7 9 4 5 1019.8 1019.7 0.0
04/02:00am 12.2 10.0 5.1 62 3.3 SE 6 9 3 5 1019.9 1019.8 0.0
04/01:30am 11.5 8.5 5.8 68 2.7 SW 11 15 6 8 1020.2 1020.1 0.0
04/01:00am 13.3 11.2 5.7 60 3.6 N 6 9 3 5 1020.4 1020.4 0.0
04/12:30am 12.6 10.4 5.5 62 3.3 WNW 6 9 3 5 1020.2 1020.1 0.0
04/12:00am 13.5 10.1 5.7 59 3.7 SW 13 17 7 9 1020.1 1020.0 0.0
 
Date/Time
EST
Temp
°C
App
Temp
°C
Dew
Point
°C
Rel
Hum
%
Delta-T
°C
Wind Press
QNH
hPa
Press
MSL
hPa
Rain since
9am
mm
Dir  Spd
km/h
Gust
km/h
Spd
kts
Gust
kts
03/11:30pm 13.9 10.5 5.8 58 3.9 WSW 13 20 7 11 1020.1 1020.0 0.0
03/11:00pm 14.3 10.5 5.9 57 4.0 W 15 20 8 11 1019.9 1019.8 0.0
03/10:30pm 14.6 10.4 5.7 55 4.2 W 17 24 9 13 1019.6 1019.5 0.0
03/10:00pm 14.7 10.5 5.8 55 4.2 WSW 17 20 9 11 1019.5 1019.4 0.0
03/09:30pm 15.6 11.5 6.3 54 4.5 WSW 17 22 9 12 1019.4 1019.3 0.0
03/09:00pm 16.4 11.7 6.2 51 5.0 WSW 20 26 11 14 1018.9 1018.8 0.0
03/08:30pm 16.5 12.4 6.1 50 5.1 SW 17 22 9 12 1018.2 1018.1 0.0
03/08:00pm 17.1 12.9 5.7 47 5.5 SW 17 22 9 12 1017.5 1017.4 0.0
03/07:30pm 17.1 14.2 4.8 44 5.9 WSW 9 13 5 7 1016.5 1016.4 0.0
03/07:00pm 17.5 13.4 4.5 42 6.2 SW 15 19 8 10 1015.7 1015.6 0.0
03/06:30pm 18.5 14.1 4.7 40 6.6 WSW 17 26 9 14 1014.9 1014.9 0.0
03/06:00pm 19.5 14.9 3.6 35 7.5 WSW 17 24 9 13 1014.4 1014.4 0.0
03/05:30pm 21.3 16.2 3.0 30 8.7 WSW 19 28 10 15 1013.7 1013.7 0.0
03/05:00pm 22.3 17.2 2.9 28 9.3 WSW 19 24 10 13 1013.2 1013.2 0.0
03/04:30pm 23.3 16.8 2.7 26 9.9 WSW 26 33 14 18 1012.5 1012.5 0.0
03/04:00pm 24.2 18.1 2.9 25 10.3 WSW 24 35 13 19 1012.1 1012.1 0.0
03/03:30pm 24.9 19.1 2.4 23 10.8 W 22 43 12 23 1011.7 1011.7 0.0
03/03:00pm 24.9 17.7 3.0 24 10.7 WSW 30 46 16 25 1011.5 1011.5 0.0
03/02:30pm 24.9 18.6 3.5 25 10.5 WSW 26 39 14 21 1011.2 1011.2 0.0
03/02:00pm 25.2 18.6 4.3 26 10.5 W 28 39 15 21 1010.9 1010.9 0.0
03/01:30pm 25.1 18.6 4.8 27 10.2 WSW 28 37 15 20 1011.0 1011.0 0.0
03/01:00pm 24.8 17.6 5.1 28 10.0 SW 32 41 17 22 1011.1 1011.1 0.0
03/12:30pm 25.1 19.4 6.8 31 9.6 WSW 26 35 14 19 1011.1 1011.1 0.0
03/12:01pm 24.9 19.0 7.5 33 9.2 WSW 28 44 15 24 1010.8 1010.8 0.0
03/12:00pm 24.7 18.4 7.4 33 9.1 WSW 30 44 16 24 1010.8 1010.8 0.0
03/11:46am 24.5 18.0 6.3 31 9.4 WSW 30 50 16 27 1010.8 1010.8 0.0
03/11:30am 24.4 17.7 7.5 34 8.9 WSW 32 43 17 23 1011.1 1011.1 0.0
03/11:00am 25.2 19.3 9.1 36 8.8 WSW 30 46 16 25 1010.8 1010.8 0.0
03/10:50am 24.4 18.2 8.0 35 8.7 SW 30 41 16 22 1010.8 1010.8 0.0
03/10:37am 24.5 18.6 7.6 34 8.9 WSW 28 46 15 25 1010.7 1010.7 0.0
03/10:32am 25.4 20.2 8.8 35 9.0 SW 26 43 14 23 1010.6 1010.6 0.0
03/10:30am 24.8 19.2 8.7 36 8.7 WSW 28 43 15 23 1010.6 1010.6 0.0
03/10:19am 24.8 18.7 8.3 35 8.8 WSW 30 48 16 26 1010.4 1010.4 0.0
03/10:13am 24.2 17.3 6.5 32 9.2 WSW 32 48 17 26 1010.4 1010.4 0.0
03/10:04am 24.3 19.1 7.4 34 8.9 WSW 24 46 13 25 1010.2 1010.2 0.0
03/10:00am 25.0 19.2 8.1 34 9.1 WSW 28 52 15 28 1010.1 1010.1 0.0
03/09:57am 24.8 19.0 7.9 34 9.0 WSW 28 52 15 28 1010.0 1010.0 0.0
03/09:54am 24.6 19.1 7.7 34 9.0 WSW 26 52 14 28 1010.0 1010.0 0.0
03/09:30am 23.6 21.3 10.3 43 7.3 WSW 13 30 7 16 1009.7 1009.7 0.0
03/09:00am 20.4 19.9 11.9 58 4.8 W 6 9 3 5 1009.8 1009.8 0.0
03/08:30am 18.6 18.6 12.4 67 3.5 NNW 4 7 2 4 1009.5 1009.5 0.0
03/08:00am 16.6 17.2 12.0 74 2.5 CALM 0 0 0 0 1009.4 1009.4 0.0
03/07:30am 13.3 12.1 11.7 90 0.9 SSW 9 11 5 6 1009.5 1009.5 0.0
03/07:00am 11.5 10.1 11.0 97 0.3 NNE 9 15 5 8 1009.5 1009.5 0.0
03/06:30am 10.7 9.5 9.6 93 0.6 N 6 7 3 4 1009.5 1009.5 0.0
03/06:00am 11.7 10.0 9.9 89 0.9 SE 9 9 5 5 1009.5 1009.5 0.0
03/05:30am 11.7 10.1 10.3 91 0.7 SSW 9 11 5 6 1009.7 1009.7 0.0
03/05:00am 12.6 11.7 10.7 88 1.0 NNE 6 9 3 5 1009.1 1009.1 0.0
03/04:30am 12.9 12.0 10.8 87 1.1 WSW 6 9 3 5 1010.2 1010.2 0.0
03/04:00am 12.6 11.2 11.0 90 0.8 NNE 9 13 5 7 1010.9 1010.9 0.0
03/03:30am 12.4 10.9 10.6 89 0.9 SW 9 11 5 6 1011.2 1011.2 0.0
03/03:00am 12.0 11.5 9.2 83 1.4 S 2 9 1 5 1010.4 1010.4 0.0
03/02:30am 12.1 12.1 9.7 85 1.2 CALM 0 0 0 0 1011.3 1011.3 0.0
03/02:00am 12.0 11.2 9.7 86 1.2 NE 4 11 2 6 1011.7 1011.7 0.0
03/01:30am 11.7 11.6 9.6 87 1.1 CALM 0 0 0 0 1012.1 1012.1 0.0
03/01:00am 11.7 10.5 9.4 86 1.2 SSW 6 11 3 6 1012.4 1012.4 0.0
03/12:30am 11.8 11.7 9.4 85 1.2 CALM 0 0 0 0 1012.4 1012.4 0.0
03/12:00am 11.6 11.0 8.8 83 1.4 NNW 2 9 1 5 1012.8 1012.8 0.0
 
Date/Time
EST
Temp
°C
App
Temp
°C
Dew
Point
°C
Rel
Hum
%
Delta-T
°C
Wind Press
QNH
hPa
Press
MSL
hPa
Rain since
9am
mm
Dir  Spd
km/h
Gust
km/h
Spd
kts
Gust
kts
02/11:30pm 11.5 11.3 8.9 84 1.3 CALM 0 0 0 0 1013.1 1013.1 0.0
02/11:00pm 12.0 11.7 8.8 81 1.6 CALM 0 0 0 0 1013.4 1013.4 0.0
02/10:30pm 13.0 12.6 8.3 73 2.3 CALM 0 0 0 0 1013.7 1013.7 0.0
02/10:00pm 13.7 13.4 8.5 71 2.6 CALM 0 0 0 0 1013.9 1013.9 0.0
02/09:30pm 14.5 14.2 8.7 68 2.9 CALM 0 0 0 0 1013.9 1013.9 0.0
02/09:00pm 14.8 13.3 9.2 69 2.9 N 7 9 4 5 1014.0 1014.0 0.0
02/08:30pm 16.0 14.4 8.0 59 4.0 N 6 9 3 5 1014.0 1014.0 0.0
02/08:00pm 19.7 17.9 7.1 44 6.4 N 6 7 3 4 1013.9 1013.9 0.0
02/07:30pm 19.0 16.8 7.8 48 5.7 NW 9 11 5 6 1013.9 1013.9 0.0
02/07:00pm 18.5 16.3 7.9 50 5.4 NNW 9 11 5 6 1013.7 1013.7 0.0
02/06:30pm 20.8 18.4 7.1 41 7.0 WNW 9 13 5 7 1013.3 1013.3 0.0

Latest Capital City Observations: Canberra | Sydney | Melbourne | Brisbane | Adelaide | Perth | Hobart | Darwin

Other formats

Comma delimited format used in spreadsheet applications
http://www.bom.gov.au/fwo/IDN60901/IDN60901.94755.axf

JavaScript Object Notation format (JSON) in row-major order
http://www.bom.gov.au/fwo/IDN60901/IDN60901.94755.json

Data quality

Most of these data are generated automatically and are frequently updated. Quality checks on data are not normally performed. It is possible for incorrect values to appear. Refer to information at About Latest Weather Observations and please check the disclaimer before using these data.